Time;durP1;ratioP1;P1;durP2;ratioP2;P2;SDS_P1;SDS_P2;PMS_P1;PMS_P2;Temp;Humidity;BMP_temperature;BMP_pressure;BME280_temperature;BME280_humidity;BME280_pressure;Samples;Min_cycle;Max_cycle;Signal;HPM_P1;HPM_P2
2023/12/25 00:00:15;;;;;;;18.70;2.73;;;;;;;10.36;100.00;100300.13;5008500;28;20181;-76
2023/12/25 00:02:40;;;;;;;17.73;3.17;;;;;;;10.58;100.00;100322.13;5000830;28;20747;-76
2023/12/25 00:05:06;;;;;;;15.13;2.63;;;;;;;10.42;100.00;100263.59;4996710;28;20235;-77
2023/12/25 00:07:31;;;;;;;13.60;2.70;;;;;;;10.63;100.00;100301.66;4998271;28;20279;-76
2023/12/25 00:09:57;;;;;;;18.17;2.90;;;;;;;10.54;100.00;100286.03;4999326;28;20652;-76
2023/12/25 00:12:23;;;;;;;13.40;3.07;;;;;;;10.55;100.00;100274.25;5003246;28;20193;-75
2023/12/25 00:14:49;;;;;;;15.87;3.10;;;;;;;10.62;100.00;100292.00;5012372;28;20244;-76
2023/12/25 00:17:15;;;;;;;16.17;2.90;;;;;;;10.25;100.00;100261.34;5000892;28;20530;-75
2023/12/25 00:19:41;;;;;;;12.93;2.33;;;;;;;10.50;100.00;100264.19;5002367;28;20851;-76
2023/12/25 00:22:06;;;;;;;13.00;2.50;;;;;;;10.67;100.00;100290.50;5012050;28;20484;-76
2023/12/25 00:24:32;;;;;;;13.50;2.33;;;;;;;10.60;100.00;100287.88;5017069;28;20188;-75
2023/12/25 00:26:57;;;;;;;14.50;2.50;;;;;;;10.43;100.00;100292.06;5002818;28;20579;-75
2023/12/25 00:29:22;;;;;;;14.10;2.60;;;;;;;10.72;100.00;100334.44;5002360;28;20668;-76
2023/12/25 00:31:48;;;;;;;11.60;2.27;;;;;;;10.71;100.00;100353.44;5010401;28;20196;-75
2023/12/25 00:34:13;;;;;;;14.33;1.97;;;;;;;10.74;100.00;100353.03;4998539;28;20259;-76
2023/12/25 00:36:39;;;;;;;11.27;2.20;;;;;;;10.66;100.00;100346.03;5000874;28;20284;-75
2023/12/25 00:39:04;;;;;;;13.13;2.80;;;;;;;10.70;100.00;100367.88;4996026;28;20181;-75
2023/12/25 00:41:31;;;;;;;14.13;3.03;;;;;;;10.54;100.00;100340.50;4993173;28;20699;-75
2023/12/25 00:43:58;;;;;;;14.20;2.53;;;;;;;9.23;100.00;100144.94;4997870;28;20189;-75
2023/12/25 00:46:23;;;;;;;10.83;2.13;;;;;;;10.38;100.00;100322.97;4996187;28;20460;-76
2023/12/25 00:48:49;;;;;;;12.27;2.30;;;;;;;10.73;100.00;100408.53;4996224;28;20824;-75
2023/12/25 00:51:14;;;;;;;12.40;2.53;;;;;;;10.63;100.00;100358.00;4997659;28;20198;-75
2023/12/25 00:53:40;;;;;;;12.43;2.20;;;;;;;10.44;100.00;100334.72;4999570;28;20706;-75
2023/12/25 00:56:06;;;;;;;17.67;2.63;;;;;;;10.42;100.00;100325.28;5010009;28;20210;-75
2023/12/25 00:58:31;;;;;;;14.10;2.50;;;;;;;10.52;100.00;100339.88;4997837;28;20204;-76
2023/12/25 01:00:56;;;;;;;14.73;2.37;;;;;;;10.55;100.00;100363.56;4996476;28;20502;-75
2023/12/25 01:03:22;;;;;;;12.87;2.60;;;;;;;10.66;100.00;100388.13;4996894;28;20694;-76
2023/12/25 01:05:47;;;;;;;11.63;2.33;;;;;;;10.51;100.00;100346.28;4997603;28;20197;-75
2023/12/25 01:08:13;;;;;;;10.73;1.80;;;;;;;10.47;100.00;100338.84;4998576;28;20189;-75
2023/12/25 01:10:38;;;;;;;13.47;3.07;;;;;;;10.39;100.00;100346.09;4995914;28;20205;-75
2023/12/25 01:13:04;;;;;;;9.50;1.97;;;;;;;10.53;100.00;100381.75;5014600;28;20189;-76
2023/12/25 01:15:29;;;;;;;10.70;2.20;;;;;;;10.62;100.00;100380.50;5001549;28;20267;-75
2023/12/25 01:17:54;;;;;;;10.00;2.03;;;;;;;10.58;100.00;100376.56;4994713;28;20589;-75
2023/12/25 01:20:20;;;;;;;15.87;2.53;;;;;;;10.46;100.00;100356.81;4997276;28;20193;-75
2023/12/25 01:22:45;;;;;;;15.53;2.60;;;;;;;10.48;100.00;100388.78;4999045;28;20201;-75
2023/12/25 01:25:11;;;;;;;9.83;1.60;;;;;;;10.49;100.00;100372.47;4993238;28;20193;-75
2023/12/25 01:27:39;;;;;;;12.77;2.10;;;;;;;10.50;100.00;100378.66;4996106;28;20236;-76
2023/12/25 01:30:05;;;;;;;17.07;2.33;;;;;;;10.55;100.00;100400.31;5006958;28;20213;-75
2023/12/25 01:32:30;;;;;;;13.23;1.87;;;;;;;10.57;100.00;100427.75;4993553;28;20490;-75
2023/12/25 01:34:56;;;;;;;19.53;2.60;;;;;;;10.46;100.00;100404.25;4997930;28;24214;-75
2023/12/25 01:37:21;;;;;;;14.40;2.83;;;;;;;10.42;100.00;100425.28;5002032;28;20213;-75
2023/12/25 01:39:47;;;;;;;14.00;2.07;;;;;;;10.55;100.00;100461.97;4995885;28;20189;-75
2023/12/25 01:42:12;;;;;;;17.73;2.70;;;;;;;10.55;100.00;100467.34;4994088;28;20243;-75
2023/12/25 01:44:37;;;;;;;10.07;1.97;;;;;;;10.43;100.00;100491.28;4994409;28;20704;-75
2023/12/25 01:47:03;;;;;;;10.03;2.00;;;;;;;10.62;100.00;100537.91;4997159;28;20643;-75
2023/12/25 01:49:29;;;;;;;9.60;1.93;;;;;;;10.59;100.00;100541.84;4997231;28;20248;-76
2023/12/25 01:51:54;;;;;;;10.93;2.03;;;;;;;10.41;100.00;100546.97;5012288;28;20212;-75
2023/12/25 01:54:20;;;;;;;10.97;2.07;;;;;;;10.39;100.00;100546.34;4996517;28;20189;-76
2023/12/25 01:56:46;;;;;;;15.93;2.53;;;;;;;10.27;100.00;100532.72;5002208;28;20317;-75
2023/12/25 01:59:12;;;;;;;11.57;1.90;;;;;;;10.53;100.00;100580.19;5000799;28;20193;-76
2023/12/25 02:01:37;;;;;;;9.37;1.83;;;;;;;10.49;100.00;100597.72;5002616;28;21061;-75
2023/12/25 02:04:03;;;;;;;11.50;2.67;;;;;;;10.21;100.00;100552.25;5016220;28;20189;-76
2023/12/25 02:06:29;;;;;;;10.83;2.00;;;;;;;10.29;100.00;100551.28;5002715;28;20221;-75
2023/12/25 02:08:55;;;;;;;9.73;2.20;;;;;;;10.24;100.00;100551.88;5015486;28;20251;-75
2023/12/25 02:11:21;;;;;;;16.43;2.33;;;;;;;10.29;100.00;100560.13;5002829;28;20476;-76
2023/12/25 02:13:46;;;;;;;12.03;1.93;;;;;;;10.27;100.00;100545.28;5002063;28;20193;-75
2023/12/25 02:16:12;;;;;;;9.70;1.90;;;;;;;10.13;100.00;100520.31;4997979;28;20375;-75
2023/12/25 02:18:38;;;;;;;12.97;2.60;;;;;;;10.18;100.00;100548.16;5017389;28;20270;-76
2023/12/25 02:21:04;;;;;;;10.27;1.93;;;;;;;9.94;100.00;100513.88;5000115;28;20254;-75
2023/12/25 02:23:34;;;;;;;12.33;2.37;;;;;;;9.98;100.00;100538.38;5004841;28;20185;-75
2023/12/25 02:26:01;;;;;;;11.05;2.30;;;;;;;10.17;100.00;100559.88;5001601;28;20291;-76
2023/12/25 02:28:27;;;;;;;10.63;2.70;;;;;;;10.16;100.00;100565.47;4998613;28;20970;-75
2023/12/25 02:30:53;;;;;;;10.70;2.30;;;;;;;10.16;100.00;100587.72;5002159;28;20480;-75
2023/12/25 02:33:18;;;;;;;13.40;2.20;;;;;;;9.89;100.00;100535.91;4997833;28;20233;-76
2023/12/25 02:35:44;;;;;;;14.35;2.60;;;;;;;9.93;100.00;100568.50;5000171;28;20194;-76
2023/12/25 02:38:09;;;;;;;11.00;2.30;;;;;;;10.05;100.00;100561.50;4998757;28;20175;-75
2023/12/25 02:40:41;;;;;;;16.50;2.50;;;;;;;10.12;100.00;100594.50;4997901;28;20632;-75
2023/12/25 02:43:08;;;;;;;12.77;2.10;;;;;;;10.14;100.00;100588.94;5002751;28;20438;-75
2023/12/25 02:45:33;;;;;;;11.80;2.30;;;;;;;10.13;100.00;100617.63;4997830;28;20506;-75
2023/12/25 02:47:59;;;;;;;14.70;2.60;;;;;;;10.13;100.00;100617.63;4998008;28;20543;-75
2023/12/25 02:50:24;;;;;;;12.60;2.33;;;;;;;10.04;100.00;100629.53;4997724;28;20201;-75
2023/12/25 02:52:50;;;;;;;9.93;2.10;;;;;;;10.10;100.00;100636.78;4998485;28;20215;-75
2023/12/25 02:55:15;;;;;;;12.23;2.60;;;;;;;9.86;100.00;100608.63;4992133;28;20243;-75
2023/12/25 02:57:41;;;;;;;14.20;2.70;;;;;;;9.77;100.00;100584.91;5005762;28;20606;-75
2023/12/25 03:00:06;;;;;;;11.50;2.20;;;;;;;9.39;100.00;100510.38;5004221;28;20281;-75
2023/12/25 03:02:32;;;;;;;13.33;2.70;;;;;;;10.08;100.00;100638.81;4994174;28;20197;-75
2023/12/25 03:04:57;;;;;;;10.73;2.40;;;;;;;9.90;100.00;100622.47;5002214;28;20448;-75
2023/12/25 03:07:23;;;;;;;11.83;2.30;;;;;;;9.88;100.00;100619.16;4999198;28;20213;-75
2023/12/25 03:09:49;;;;;;;16.40;3.77;;;;;;;9.84;100.00;100599.97;4996094;28;20217;-76
2023/12/25 03:12:14;;;;;;;11.07;2.57;;;;;;;9.79;100.00;100602.44;5013343;28;20224;-75
2023/12/25 03:14:43;;;;;;;12.20;2.57;;;;;;;8.08;100.00;100339.88;5038628;22;21075;-78
2023/12/25 03:17:14;;;;;;;18.30;2.93;;;;;;;7.58;100.00;100255.50;5059155;28;20207;-77
2023/12/25 03:19:39;;;;;;;9.00;2.10;;;;;;;7.99;100.00;100348.25;5055314;28;20441;-77
2023/12/25 03:22:12;;;;;;;17.00;2.40;;;;;;;8.99;100.00;100510.97;5049676;28;20768;-78
2023/12/25 03:24:40;;;;;;;16.17;2.80;;;;;;;8.46;100.00;100405.53;5053192;28;21158;-77
2023/12/25 03:27:11;;;;;;;16.00;2.40;;;;;;;8.90;100.00;100472.03;5051501;28;20502;-79
2023/12/25 03:29:41;;;;;;;16.07;3.40;;;;;;;9.13;100.00;100490.47;5051133;28;20468;-79
2023/12/25 03:32:09;;;;;;;15.13;2.90;;;;;;;8.91;100.00;100481.72;5049896;28;20440;-78
2023/12/25 03:34:49;;;;;;;9.27;2.43;;;;;;;8.76;100.00;100456.94;5050304;28;20464;-81
2023/12/25 03:37:17;;;;;;;11.60;2.43;;;;;;;7.40;100.00;100238.09;5050742;28;20504;-78
2023/12/25 03:39:51;;;;;;;14.73;2.50;;;;;;;7.57;100.00;100288.53;5052894;28;20437;-77
2023/12/25 03:42:21;;;;;;;11.50;2.45;;;;;;;7.84;100.00;100325.13;5054146;28;20436;-77
2023/12/25 03:44:49;;;;;;;12.80;2.90;;;;;;;7.33;100.00;100242.56;5056007;28;20530;-78
2023/12/25 03:47:20;;;;;;;13.57;2.80;;;;;;;7.57;100.00;100301.88;5051363;28;20468;-79
2023/12/25 03:49:48;;;;;;;;;;;;;;;9.92;100.00;100663.25;5051201;28;20853;-77
2023/12/25 03:52:21;;;;;;;15.70;3.23;;;;;;;7.45;100.00;100272.22;5067795;28;20200;-78
2023/12/25 03:54:51;;;;;;;11.57;2.63;;;;;;;7.42;100.00;100261.94;5071808;28;21008;-78
2023/12/25 03:57:22;;;;;;;14.67;2.50;;;;;;;8.97;100.00;100485.47;5073317;28;21102;-78
2023/12/25 03:59:49;;;;;;;20.33;3.10;;;;;;;7.23;100.00;100234.91;5055288;28;20506;-78
2023/12/25 04:02:20;;;;;;;15.27;2.97;;;;;;;7.78;100.00;100304.53;5057989;28;20449;-76
2023/12/25 04:04:49;;;;;;;13.97;2.93;;;;;;;7.35;100.00;100197.03;5052555;28;20510;-77
2023/12/25 04:07:17;;;;;;;16.93;3.07;;;;;;;8.78;100.00;100439.66;5053789;28;20476;-78
2023/12/25 04:09:47;;;;;;;12.57;2.93;;;;;;;8.27;100.00;100378.44;5042733;28;20480;-79
2023/12/25 04:12:15;;;;;;;15.17;2.80;;;;;;;8.03;100.00;100361.00;5047219;28;20442;-76
2023/12/25 04:14:42;;;;;;;15.10;2.70;;;;;;;8.10;100.00;100345.00;5048213;28;20456;-77
2023/12/25 04:17:12;;;;;;;11.90;2.33;;;;;;;8.49;100.00;100402.47;5047415;28;20989;-78
2023/12/25 04:19:44;;;;;;;10.87;2.40;;;;;;;9.26;100.00;100509.28;5053239;28;21227;-78
2023/12/25 04:22:13;;;;;;;15.03;2.50;;;;;;;7.39;100.00;100193.78;5058164;28;21047;-78
2023/12/25 04:24:46;;;;;;;14.87;2.70;;;;;;;8.66;100.00;100438.56;5041470;28;20787;-80
2023/12/25 04:27:18;;;;;;;13.30;2.43;;;;;;;8.03;100.00;100361.00;5043428;28;20464;-77
2023/12/25 04:29:48;;;;;;;13.53;3.80;;;;;;;7.32;100.00;100208.06;5043404;28;20480;-77
2023/12/25 04:32:18;;;;;;;17.70;3.20;;;;;;;7.33;100.00;100223.06;5045341;28;20487;-81
2023/12/25 04:34:48;;;;;;;10.90;2.53;;;;;;;8.72;100.00;100485.09;5040100;28;20434;-78
2023/12/25 04:37:21;;;;;;;16.73;3.10;;;;;;;7.38;100.00;100287.38;5045129;28;20489;-78
2023/12/25 04:39:52;;;;;;;12.30;3.15;;;;;;;7.68;100.00;100344.06;5039744;28;20432;-77
2023/12/25 04:42:20;;;;;;;13.83;2.63;;;;;;;7.13;100.00;100236.22;5050377;28;20817;-77
2023/12/25 04:44:50;;;;;;;15.50;2.83;;;;;;;7.66;100.00;100301.53;5043124;28;20457;-77
2023/12/25 04:47:20;;;;;;;12.97;2.70;;;;;;;7.57;100.00;100300.03;5040614;28;20464;-82
2023/12/25 04:49:48;;;;;;;15.87;4.40;;;;;;;8.53;100.00;100486.59;5040759;28;20465;-78
2023/12/25 04:52:16;;;;;;;;;;;;;;;9.68;100.00;100653.88;5046125;28;21011;-79
2023/12/25 04:54:47;;;;;;;12.00;2.53;;;;;;;7.43;100.00;100339.16;5063981;28;20348;-77
2023/12/25 04:57:15;;;;;;;19.23;2.80;;;;;;;9.56;100.00;100656.28;5052082;28;20490;-77
2023/12/25 04:59:46;;;;;;;14.40;2.27;;;;;;;8.78;100.00;100508.38;5051471;28;20445;-80
2023/12/25 05:02:16;;;;;;;10.80;2.30;;;;;;;7.20;100.00;100258.44;5065506;28;25133;-78
2023/12/25 05:04:44;;;;;;;15.00;2.87;;;;;;;7.26;100.00;100257.69;5049205;28;20456;-77
2023/12/25 05:07:16;;;;;;;16.23;3.13;;;;;;;8.67;100.00;100512.41;5051557;28;20501;-78
2023/12/25 05:09:46;;;;;;;15.15;2.60;;;;;;;8.06;100.00;100410.53;5047316;28;21002;-77
2023/12/25 05:12:19;;;;;;;14.00;3.10;;;;;;;8.09;100.00;100392.28;5040049;28;21380;-77
2023/12/25 05:14:46;;;;;;;20.10;3.30;;;;;;;7.88;100.00;100366.44;5048775;28;20584;-78
2023/12/25 05:17:16;;;;;;;11.93;2.63;;;;;;;7.29;100.00;100256.47;5042588;28;20465;-78
2023/12/25 05:19:50;;;;;;;14.03;2.77;;;;;;;7.44;100.00;100322.09;5050998;28;20433;-77
2023/12/25 05:22:22;;;;;;;13.80;2.50;;;;;;;7.18;100.00;100272.00;5054357;28;20428;-78
2023/12/25 05:24:52;;;;;;;11.80;2.80;;;;;;;7.64;100.00;100378.34;5042118;28;20642;-77
2023/12/25 05:27:22;;;;;;;13.87;2.43;;;;;;;8.58;100.00;100484.16;5052842;28;20710;-77
2023/12/25 05:29:56;;;;;;;12.93;2.60;;;;;;;7.73;100.00;100388.91;5067108;28;20507;-77
2023/12/25 05:32:24;;;;;;;24.77;2.93;;;;;;;7.43;100.00;100307.13;5049763;28;21137;-78
2023/12/25 05:34:51;;;;;;;13.07;2.53;;;;;;;7.81;100.00;100397.59;5044393;28;20718;-77
2023/12/25 05:37:24;;;;;;;14.90;3.00;;;;;;;8.70;100.00;100511.19;5034325;28;20453;-79
2023/12/25 05:39:55;;;;;;;15.75;2.80;;;;;;;7.51;100.00;100314.16;5048750;28;20456;-80
2023/12/25 05:42:25;;;;;;;17.70;2.63;;;;;;;9.15;100.00;100624.91;5044847;28;21125;-77
2023/12/25 05:44:53;;;;;;;10.47;2.30;;;;;;;7.15;100.00;100252.88;5045392;28;20468;-79
2023/12/25 05:47:24;;;;;;;13.93;2.50;;;;;;;7.54;100.00;100343.13;5064732;28;20457;-77
2023/12/25 05:49:54;;;;;;;14.30;2.90;;;;;;;7.14;100.00;100291.22;5044728;28;20468;-78
2023/12/25 05:52:24;;;;;;;13.70;2.23;;;;;;;8.52;100.00;100525.03;5049792;28;20807;-77
2023/12/25 05:55:00;;;;;;;19.60;3.23;;;;;;;8.81;100.00;100564.97;5046672;28;20437;-78
2023/12/25 05:57:33;;;;;;;13.10;3.10;;;;;;;8.61;100.00;100526.56;5047176;28;20574;-78
2023/12/25 06:00:04;;;;;;;15.30;2.60;;;;;;;7.27;100.00;100299.38;5054708;28;20455;-77
2023/12/25 06:02:32;;;;;;;11.37;2.53;;;;;;;9.59;100.00;100720.16;5047020;28;20445;-79
2023/12/25 06:05:03;;;;;;;15.80;2.20;;;;;;;7.15;100.00;100277.69;5049255;28;20498;-79
2023/12/25 06:07:36;;;;;;;12.70;2.80;;;;;;;8.66;100.00;100525.97;5043247;28;20453;-78
2023/12/25 06:10:07;;;;;;;11.13;2.70;;;;;;;8.16;100.00;100499.22;5045705;28;20457;-81
2023/12/25 06:12:39;;;;;;;17.17;3.03;;;;;;;7.77;100.00;100422.19;5052035;28;20434;-78
2023/12/25 06:15:08;;;;;;;14.53;2.00;;;;;;;8.09;100.00;100495.63;5046211;28;20567;-78
2023/12/25 06:17:41;;;;;;;14.00;2.70;;;;;;;8.33;100.00;100529.16;5044103;28;21168;-81
2023/12/25 06:20:09;;;;;;;16.30;2.67;;;;;;;7.45;100.00;100386.97;5050017;28;20437;-78
2023/12/25 06:22:39;;;;;;;;;;;;;;;9.55;100.00;100708.19;5041767;28;21023;-78
2023/12/25 06:25:05;;;;;;;11.80;2.07;;;;;;;7.98;100.00;100477.44;5055843;28;20610;-78
2023/12/25 06:27:35;;;;;;;13.30;2.60;;;;;;;8.69;100.00;100587.91;5051236;28;20460;-78
2023/12/25 06:30:06;;;;;;;13.40;2.83;;;;;;;7.88;100.00;100464.41;5048085;28;20237;-81
2023/12/25 06:32:36;;;;;;;15.87;3.50;;;;;;;7.66;100.00;100405.66;5053004;28;20438;-78
2023/12/25 06:35:06;;;;;;;14.30;3.43;;;;;;;8.48;100.00;100529.94;5062039;28;20428;-78
2023/12/25 06:37:36;;;;;;;17.10;2.80;;;;;;;8.06;100.00;100461.28;5056571;28;20484;-79
2023/12/25 06:40:05;;;;;;;13.70;2.80;;;;;;;7.97;100.00;100459.78;5055829;28;20367;-78
2023/12/25 06:42:36;;;;;;;14.60;2.60;;;;;;;7.46;100.00;100412.63;5053696;28;20876;-78
2023/12/25 06:45:01;;;;;;;18.70;4.50;;;;;;;7.70;100.00;100441.66;5056475;28;20464;-78
2023/12/25 06:47:32;;;;;;;16.37;3.17;;;;;;;8.62;100.00;100572.81;5058230;28;20476;-77
2023/12/25 06:50:02;;;;;;;22.47;3.10;;;;;;;7.71;100.00;100439.78;5056905;28;20206;-77
2023/12/25 06:52:32;;;;;;;14.33;3.37;;;;;;;8.56;100.00;100563.72;5057758;28;20821;-78
2023/12/25 06:55:03;;;;;;;14.17;3.30;;;;;;;8.42;100.00;100544.09;5062210;28;20436;-77
2023/12/25 06:57:31;;;;;;;15.30;3.40;;;;;;;8.26;100.00;100529.09;5063463;28;20465;-77
2023/12/25 07:00:01;;;;;;;29.23;4.00;;;;;;;6.68;100.00;100287.03;5063456;28;20937;-78
2023/12/25 07:02:29;;;;;;;25.70;3.87;;;;;;;7.45;100.00;100384.31;5054227;28;20433;-78
2023/12/25 07:04:58;;;;;;;20.37;4.10;;;;;;;8.03;100.00;100507.09;5051089;28;20507;-81
2023/12/25 07:07:23;;;;;;;17.03;3.60;;;;;;;8.29;100.00;100534.06;5058305;28;20474;-77
2023/12/25 07:09:53;;;;;;;12.05;2.60;;;;;;;7.04;100.00;100352.06;5041803;28;20990;-79
2023/12/25 07:12:26;;;;;;;19.33;4.70;;;;;;;7.34;100.00;100387.47;5060098;28;20229;-77
2023/12/25 07:14:56;;;;;;;20.00;3.30;;;;;;;7.61;100.00;100453.47;5062729;28;20439;-78
2023/12/25 07:17:27;;;;;;;14.03;3.33;;;;;;;7.39;100.00;100417.91;5057978;28;20507;-77
2023/12/25 07:20:00;;;;;;;17.50;3.83;;;;;;;6.78;100.00;100340.03;5053125;28;21068;-77
2023/12/25 07:22:32;;;;;;;13.07;3.20;;;;;;;7.42;100.00;100440.72;5058740;28;20428;-78
2023/12/25 07:25:05;;;;;;;13.93;2.70;;;;;;;8.53;100.00;100630.94;5049504;28;20583;-77
2023/12/25 07:27:34;;;;;;;14.40;4.40;;;;;;;7.07;100.00;100405.84;5059704;28;20547;-80
2023/12/25 07:30:02;;;;;;;17.17;3.27;;;;;;;7.60;100.00;100507.03;5058592;28;20852;-77
2023/12/25 07:32:32;;;;;;;20.73;3.40;;;;;;;6.49;100.00;100300.94;5062749;28;20907;-78
2023/12/25 07:35:06;;;;;;;12.87;2.37;;;;;;;6.86;100.00;100400.44;5055901;28;20810;-78
2023/12/25 07:37:38;;;;;;;16.57;2.93;;;;;;;7.77;100.00;100531.66;5048693;28;21104;-81
2023/12/25 07:40:07;;;;;;;18.63;3.27;;;;;;;6.27;100.00;100282.19;5051658;28;21122;-81
2023/12/25 07:42:38;;;;;;;15.23;2.10;;;;;;;7.15;100.00;100437.75;5053174;28;20430;-77
2023/12/25 07:45:09;;;;;;;10.20;2.40;;;;;;;5.96;100.00;100293.03;5050873;28;20805;-76
2023/12/25 07:47:39;;;;;;;10.73;2.00;;;;;;;5.80;100.00;100277.19;5048327;28;20458;-77
2023/12/25 07:50:07;;;;;;;9.83;2.00;;;;;;;5.79;100.00;100288.84;5051490;28;20473;-76
2023/12/25 07:52:36;;;;;;;10.83;1.60;;;;;;;5.98;100.00;100333.59;5050644;28;20490;-77
2023/12/25 07:55:01;;;;;;;7.67;1.67;;;;;;;5.51;100.00;100264.66;5056103;28;20942;-77
2023/12/25 07:57:29;;;;;;;8.70;1.80;;;;;;;7.39;100.00;100562.00;5060566;28;20460;-77
2023/12/25 07:59:59;;;;;;;7.23;2.00;;;;;;;5.99;100.00;100343.25;5064872;28;20588;-76
2023/12/25 08:02:27;;;;;;;7.43;1.37;;;;;;;6.16;100.00;100369.69;5072226;28;20436;-78
2023/12/25 08:04:54;;;;;;;8.60;1.40;;;;;;;6.21;100.00;100417.94;5051587;28;20552;-77
2023/12/25 08:07:25;;;;;;;9.00;1.73;;;;;;;5.93;100.00;100383.91;5064025;28;20441;-77
2023/12/25 08:09:54;;;;;;;5.43;1.30;;;;;;;7.47;100.00;100659.81;5053140;28;20462;-76
2023/12/25 08:12:22;;;;;;;9.60;1.63;;;;;;;6.63;100.00;100544.44;5059583;28;20804;-77
2023/12/25 08:14:55;;;;;;;7.43;1.40;;;;;;;6.83;100.00;100577.59;5059523;28;20811;-79
2023/12/25 08:17:28;;;;;;;7.00;1.43;;;;;;;5.80;100.00;100396.94;5048968;28;20449;-76
2023/12/25 08:19:58;;;;;;;12.50;2.00;;;;;;;5.86;100.00;100391.72;5055552;28;20486;-78
2023/12/25 08:22:29;;;;;;;8.23;1.90;;;;;;;7.54;100.00;100660.72;5075504;28;20512;-77
2023/12/25 08:24:59;;;;;;;5.87;1.40;;;;;;;7.40;100.00;100653.53;5059097;28;20433;-78
2023/12/25 08:27:29;;;;;;;6.87;1.50;;;;;;;6.48;100.00;100520.41;5046760;28;20457;-77
2023/12/25 08:29:59;;;;;;;5.60;1.20;;;;;;;6.38;100.00;100507.34;5045066;28;20470;-78
2023/12/25 08:32:29;;;;;;;8.20;1.90;;;;;;;6.05;100.00;100433.06;5056121;28;21205;-78
2023/12/25 08:35:00;;;;;;;11.37;2.60;;;;;;;7.14;100.00;100622.78;5044552;28;20440;-78
2023/12/25 08:37:30;;;;;;;12.90;2.47;;;;;;;5.89;100.00;100449.09;5041356;28;20951;-77
2023/12/25 08:39:58;;;;;;;11.13;1.87;;;;;;;7.48;100.00;100662.28;5036513;28;20537;-79
2023/12/25 08:42:26;;;;;;;7.13;1.80;;;;;;;7.82;100.00;100730.34;5042897;28;20436;-75
2023/12/25 08:44:56;;;;;;;12.67;2.10;;;;;;;7.47;100.00;100655.31;5041569;28;20430;-76
2023/12/25 08:47:28;;;;;;;15.97;2.63;;;;;;;5.88;100.00;100396.91;5043063;28;20518;-76
2023/12/25 08:50:01;;;;;;;10.47;2.20;;;;;;;5.92;100.00;100424.78;5045956;28;20469;-77
2023/12/25 08:52:28;;;;;;;12.00;2.80;;;;;;;6.38;100.00;100515.34;5056042;28;20468;-77
2023/12/25 08:54:59;;;;;;;13.90;2.43;;;;;;;6.21;100.00;100481.84;5050672;28;20449;-75
2023/12/25 08:57:29;;;;;;;18.47;2.87;;;;;;;7.56;100.00;100700.59;5048578;28;21062;-76
2023/12/25 08:59:59;;;;;;;8.53;2.17;;;;;;;7.61;100.00;100706.22;5057158;28;20425;-75
2023/12/25 09:02:33;;;;;;;15.83;3.50;;;;;;;6.22;100.00;100505.66;5062429;28;20516;-76
2023/12/25 09:05:05;;;;;;;11.83;2.53;;;;;;;7.51;100.00;100687.78;5057202;28;20486;-76
2023/12/25 09:07:39;;;;;;;14.07;2.00;;;;;;;6.36;100.00;100482.72;5056326;28;20468;-77
2023/12/25 09:10:10;;;;;;;11.53;2.37;;;;;;;6.05;100.00;100453.53;5052371;28;20537;-79
2023/12/25 09:12:43;;;;;;;14.90;2.37;;;;;;;7.64;100.00;100721.88;5063416;28;20424;-80
2023/12/25 09:15:19;;;;;;;13.50;2.70;;;;;;;6.62;100.00;100570.25;5044159;28;20811;-78
2023/12/25 09:17:50;;;;;;;17.50;3.00;;;;;;;7.70;100.00;100715.81;5040327;28;20479;-77
2023/12/25 09:20:21;;;;;;;14.43;3.23;;;;;;;7.90;100.00;100772.16;5049280;28;20429;-78
2023/12/25 09:22:52;;;;;;;19.50;4.67;;;;;;;6.39;100.00;100519.66;5049346;28;20973;-78
2023/12/25 09:25:22;;;;;;;16.60;3.20;;;;;;;7.50;100.00;100690.66;5051739;28;20435;-77
2023/12/25 09:27:50;;;;;;;22.33;2.77;;;;;;;6.02;100.00;100460.03;5058229;28;20459;-79
2023/12/25 09:30:24;;;;;;;18.83;3.40;;;;;;;5.88;100.00;100487.41;5056633;28;20500;-78
2023/12/25 09:32:57;;;;;;;16.03;3.00;;;;;;;6.49;100.00;100586.84;5059341;28;20556;-77
2023/12/25 09:35:25;;;;;;;18.43;3.30;;;;;;;7.83;100.00;100806.75;5060795;28;20429;-77
2023/12/25 09:37:55;;;;;;;24.30;4.17;;;;;;;6.72;100.00;100604.66;5077418;28;20446;-79
2023/12/25 09:40:26;;;;;;;17.37;3.10;;;;;;;6.99;100.00;100643.25;5054041;28;20428;-77
2023/12/25 09:42:57;;;;;;;26.03;3.20;;;;;;;7.72;100.00;100782.34;5047715;28;20440;-78
2023/12/25 09:45:34;;;;;;;17.73;3.07;;;;;;;6.52;100.00;100578.50;5056266;28;20433;-78
2023/12/25 09:48:05;;;;;;;24.43;3.43;;;;;;;7.58;100.00;100751.94;5051018;28;20587;-78
2023/12/25 09:50:39;;;;;;;26.67;5.13;;;;;;;7.59;100.00;100774.97;5046385;28;20469;-76
2023/12/25 09:53:12;;;;;;;21.20;3.40;;;;;;;7.78;100.00;100771.78;5057174;28;20437;-77
2023/12/25 09:55:46;;;;;;;18.23;3.90;;;;;;;7.33;100.00;100719.31;5048011;28;20456;-77
2023/12/25 09:58:16;;;;;;;15.23;2.90;;;;;;;7.16;100.00;100699.97;5057345;28;20477;-79
2023/12/25 10:00:50;;;;;;;17.50;3.80;;;;;;;7.16;100.00;100731.97;5057462;28;20444;-78
2023/12/25 10:03:21;;;;;;;14.13;2.73;;;;;;;7.25;100.00;100725.56;5054328;28;20542;-76
2023/12/25 10:05:51;;;;;;;17.63;3.00;;;;;;;6.32;100.00;100537.38;5051030;28;20441;-77
2023/12/25 10:08:22;;;;;;;19.17;2.90;;;;;;;6.42;100.00;100603.72;5045735;28;20429;-77
2023/12/25 10:11:03;;;;;;;14.50;2.80;;;;;;;7.12;100.00;100686.16;5069097;28;20461;-77
2023/12/25 10:13:34;;;;;;;12.23;3.30;;;;;;;8.06;100.00;100837.94;5055360;28;20417;-78
2023/12/25 10:16:07;;;;;;;16.33;2.93;;;;;;;6.50;100.00;100579.69;5055617;28;20486;-76
2023/12/25 10:18:37;;;;;;;16.53;3.20;;;;;;;6.60;100.00;100601.59;5055325;28;20798;-79
2023/12/25 10:21:05;;;;;;;14.43;2.80;;;;;;;7.54;100.00;100780.00;5059114;28;20414;-77
2023/12/25 10:23:39;;;;;;;13.30;2.80;;;;;;;6.28;100.00;100522.75;5061020;28;20449;-79
2023/12/25 10:26:08;;;;;;;16.37;2.53;;;;;;;8.09;100.00;100822.38;5061158;28;20516;-79
2023/12/25 10:28:41;;;;;;;13.60;2.60;;;;;;;6.57;100.00;100591.31;5049870;28;20438;-79
2023/12/25 10:31:11;;;;;;;18.07;2.80;;;;;;;7.94;100.00;100858.91;5063517;28;20574;-77
2023/12/25 10:34:04;;;;;;;14.17;3.30;;;;;;;7.93;100.00;100831.38;5048575;28;20533;-77
2023/12/25 10:36:43;;;;;;;13.17;3.30;;;;;;;8.27;100.00;100938.75;5053424;28;20454;-77
2023/12/25 10:39:13;;;;;;;18.43;3.70;;;;;;;7.96;100.00;100840.88;5048739;28;20459;-77
2023/12/25 10:41:43;;;;;;;13.80;2.40;;;;;;;8.85;100.00;101000.56;5057337;28;20468;-78
2023/12/25 10:44:14;;;;;;;14.97;2.67;;;;;;;7.29;100.00;100766.03;5053357;28;20501;-78
2023/12/25 10:46:48;;;;;;;16.10;3.27;;;;;;;6.59;100.00;100650.56;5052092;28;20458;-78
2023/12/25 10:49:25;;;;;;;13.70;3.30;;;;;;;7.73;100.00;100808.88;5053297;28;20453;-78
2023/12/25 10:51:54;;;;;;;13.90;3.00;;;;;;;7.83;100.00;100816.63;5070236;28;20516;-78
2023/12/25 10:54:27;;;;;;;13.00;2.87;;;;;;;7.00;100.00;100680.44;5055427;28;20426;-77
2023/12/25 10:57:03;;;;;;;14.60;2.57;;;;;;;7.22;100.00;100779.28;5061650;28;20453;-79
2023/12/25 10:59:38;;;;;;;13.60;3.20;;;;;;;7.90;100.00;100853.13;5064805;28;20976;-77
2023/12/25 11:02:13;;;;;;;16.40;3.70;;;;;;;7.52;100.00;100784.69;5055264;28;20449;-78
2023/12/25 11:04:51;;;;;;;16.17;3.40;;;;;;;6.61;100.00;100619.25;5060302;28;20429;-77
2023/12/25 11:07:21;;;;;;;19.27;3.97;;;;;;;8.86;100.00;101004.91;5058828;28;20977;-78
2023/12/25 11:09:52;;;;;;;16.20;2.77;;;;;;;7.45;100.00;100788.09;5050508;28;20838;-78
2023/12/25 11:12:24;;;;;;;11.30;2.77;;;;;;;7.42;100.00;100785.78;5059839;28;20475;-76
2023/12/25 11:14:57;;;;;;;13.83;2.60;;;;;;;8.02;100.00;100909.59;5050648;28;20477;-77
2023/12/25 11:17:28;;;;;;;9.50;2.07;;;;;;;6.46;100.00;100613.84;5058213;28;20589;-78
2023/12/25 11:20:00;;;;;;;18.97;3.33;;;;;;;7.77;100.00;100858.22;5061126;28;21036;-77
2023/12/25 11:22:35;;;;;;;16.80;2.57;;;;;;;6.34;100.00;100600.13;5056695;28;20425;-77
2023/12/25 11:25:06;;;;;;;16.83;3.80;;;;;;;7.97;100.00;100847.88;5061651;28;20449;-78